sensor_id;sensor_type;location;lat;lon;timestamp;pressure;altitude;pressure_sealevel;temperature;humidity
2036;BME280;23642;42.658;23.350;2022-09-13T00:02:18;55453.88;;;-146.31;78.55
2036;BME280;23642;42.658;23.350;2022-09-13T00:04:45;55453.88;;;-146.31;78.43
2036;BME280;23642;42.658;23.350;2022-09-13T00:07:13;55443.56;;;-146.31;78.75
2036;BME280;23642;42.658;23.350;2022-09-13T00:09:40;55424.97;;;-146.31;78.95
2036;BME280;23642;42.658;23.350;2022-09-13T00:12:08;55460.06;;;-146.31;78.71
2036;BME280;23642;42.658;23.350;2022-09-13T00:14:35;55445.63;;;-146.31;78.20
2036;BME280;23642;42.658;23.350;2022-09-13T00:17:02;55429.09;;;-146.31;78.11
2036;BME280;23642;42.658;23.350;2022-09-13T00:19:29;55427.03;;;-146.31;77.48
2036;BME280;23642;42.658;23.350;2022-09-13T00:21:56;55422.91;;;-146.31;77.37
2036;BME280;23642;42.658;23.350;2022-09-13T00:24:23;55427.03;;;-146.31;77.37
2036;BME280;23642;42.658;23.350;2022-09-13T00:26:49;55420.84;;;-146.31;77.14
2036;BME280;23642;42.658;23.350;2022-09-13T00:29:18;55420.84;;;-146.31;76.59
2036;BME280;23642;42.658;23.350;2022-09-13T00:31:45;55429.09;;;-146.31;76.61
2036;BME280;23642;42.658;23.350;2022-09-13T00:34:12;55398.13;;;-146.31;76.22
2036;BME280;23642;42.658;23.350;2022-09-13T00:36:39;55418.78;;;-146.31;76.40
2036;BME280;23642;42.658;23.350;2022-09-13T00:39:06;55414.63;;;-146.31;75.75
2036;BME280;23642;42.658;23.350;2022-09-13T00:41:33;55400.19;;;-146.31;75.42
2036;BME280;23642;42.658;23.350;2022-09-13T00:44:01;55393.97;;;-146.31;75.26
2036;BME280;23642;42.658;23.350;2022-09-13T00:46:34;55381.59;;;-146.31;75.14
2036;BME280;23642;42.658;23.350;2022-09-13T00:49:11;55418.78;;;-146.31;74.96
2036;BME280;23642;42.658;23.350;2022-09-13T00:51:42;55410.50;;;-146.31;75.07
2036;BME280;23642;42.658;23.350;2022-09-13T00:54:12;55385.72;;;-146.31;74.91
2036;BME280;23642;42.658;23.350;2022-09-13T00:56:44;55391.91;;;-146.31;74.74
2036;BME280;23642;42.658;23.350;2022-09-13T00:59:21;55402.25;;;-146.31;74.50
2036;BME280;23642;42.658;23.350;2022-09-13T01:01:54;55371.25;;;-146.31;74.24
2036;BME280;23642;42.658;23.350;2022-09-13T01:04:24;55365.06;;;-146.31;74.17
2036;BME280;23642;42.658;23.350;2022-09-13T01:06:55;55377.47;;;-146.31;73.61
2036;BME280;23642;42.658;23.350;2022-09-13T01:09:24;55389.84;;;-146.31;73.76
2036;BME280;23642;42.658;23.350;2022-09-13T01:11:56;55385.72;;;-146.31;73.70
2036;BME280;23642;42.658;23.350;2022-09-13T01:14:28;55393.97;;;-146.31;73.72
2036;BME280;23642;42.658;23.350;2022-09-13T01:16:57;55385.72;;;-146.31;73.68
2036;BME280;23642;42.658;23.350;2022-09-13T01:19:24;55404.31;;;-146.31;73.47
2036;BME280;23642;42.658;23.350;2022-09-13T01:22:29;55389.84;;;-146.31;73.20
2036;BME280;23642;42.658;23.350;2022-09-13T01:28:09;55398.13;;;-146.31;73.21
2036;BME280;23642;42.658;23.350;2022-09-13T01:30:48;55385.72;;;-146.31;73.37
2036;BME280;23642;42.658;23.350;2022-09-13T01:33:36;55391.91;;;-146.31;73.35
2036;BME280;23642;42.658;23.350;2022-09-13T01:36:21;55383.66;;;-146.31;73.40
2036;BME280;23642;42.658;23.350;2022-09-13T01:39:00;55398.13;;;-146.31;73.46
2036;BME280;23642;42.658;23.350;2022-09-13T01:41:46;55402.25;;;-146.31;73.45
2036;BME280;23642;42.658;23.350;2022-09-13T01:44:22;55398.13;;;-146.31;73.57
2036;BME280;23642;42.658;23.350;2022-09-13T01:47:00;55389.84;;;-146.31;73.83
2036;BME280;23642;42.658;23.350;2022-09-13T01:49:32;55404.31;;;-146.31;73.92
2036;BME280;23642;42.658;23.350;2022-09-13T01:52:07;55408.44;;;-146.31;73.86
2036;BME280;23642;42.658;23.350;2022-09-13T01:54:40;55375.41;;;-146.31;74.60
2036;BME280;23642;42.658;23.350;2022-09-13T01:57:14;55389.84;;;-146.31;74.26
2036;BME280;23642;42.658;23.350;2022-09-13T01:59:48;55412.56;;;-146.31;74.97
2036;BME280;23642;42.658;23.350;2022-09-13T02:02:22;55412.56;;;-146.31;75.08
2036;BME280;23642;42.658;23.350;2022-09-13T02:04:54;55406.38;;;-146.31;75.12
2036;BME280;23642;42.658;23.350;2022-09-13T02:07:29;55418.78;;;-146.31;75.17
2036;BME280;23642;42.658;23.350;2022-09-13T02:10:02;55398.13;;;-146.31;75.29
2036;BME280;23642;42.658;23.350;2022-09-13T02:12:33;55393.97;;;-146.31;75.24
2036;BME280;23642;42.658;23.350;2022-09-13T02:15:07;55396.03;;;-146.31;75.68
2036;BME280;23642;42.658;23.350;2022-09-13T02:17:38;55410.50;;;-146.31;75.67
2036;BME280;23642;42.658;23.350;2022-09-13T02:20:11;55387.78;;;-146.31;75.82
2036;BME280;23642;42.658;23.350;2022-09-13T02:22:42;55424.97;;;-146.31;76.53
2036;BME280;23642;42.658;23.350;2022-09-13T02:25:14;55431.16;;;-146.31;77.75
2036;BME280;23642;42.658;23.350;2022-09-13T02:27:45;55422.91;;;-146.31;78.36
2036;BME280;23642;42.658;23.350;2022-09-13T02:30:15;55439.41;;;-146.31;78.10
2036;BME280;23642;42.658;23.350;2022-09-13T02:32:50;55451.81;;;-146.31;78.24
2036;BME280;23642;42.658;23.350;2022-09-13T02:35:20;55422.91;;;-146.31;78.42
2036;BME280;23642;42.658;23.350;2022-09-13T02:37:54;55460.06;;;-146.31;78.46
2036;BME280;23642;42.658;23.350;2022-09-13T02:40:27;55416.69;;;-146.31;78.27
2036;BME280;23642;42.658;23.350;2022-09-13T02:42:59;55431.16;;;-146.31;78.81
2036;BME280;23642;42.658;23.350;2022-09-13T02:45:29;55439.41;;;-146.31;79.07
2036;BME280;23642;42.658;23.350;2022-09-13T02:48:06;55422.91;;;-146.31;79.49
2036;BME280;23642;42.658;23.350;2022-09-13T02:50:43;55455.94;;;-146.31;80.05
2036;BME280;23642;42.658;23.350;2022-09-13T02:53:16;55431.16;;;-146.31;80.37
2036;BME280;23642;42.658;23.350;2022-09-13T02:55:52;55420.84;;;-146.31;81.15
2036;BME280;23642;42.658;23.350;2022-09-13T02:58:29;55445.63;;;-146.31;80.51
2036;BME280;23642;42.658;23.350;2022-09-13T03:00:58;55443.56;;;-146.31;80.25
2036;BME280;23642;42.658;23.350;2022-09-13T03:03:26;55441.50;;;-146.31;80.15
2036;BME280;23642;42.658;23.350;2022-09-13T03:05:53;55437.34;;;-146.31;80.34
2036;BME280;23642;42.658;23.350;2022-09-13T03:08:21;55418.78;;;-146.31;80.43
2036;BME280;23642;42.658;23.350;2022-09-13T03:10:57;55439.41;;;-146.31;80.63
2036;BME280;23642;42.658;23.350;2022-09-13T03:16:35;55431.16;;;-146.31;80.77
2036;BME280;23642;42.658;23.350;2022-09-13T03:19:20;55439.41;;;-146.31;81.35
2036;BME280;23642;42.658;23.350;2022-09-13T03:22:01;55462.13;;;-146.31;82.17
2036;BME280;23642;42.658;23.350;2022-09-13T03:24:41;55443.56;;;-146.31;82.02
2036;BME280;23642;42.658;23.350;2022-09-13T03:27:19;55410.50;;;-146.31;81.63
2036;BME280;23642;42.658;23.350;2022-09-13T03:29:55;55441.50;;;-146.31;82.03
2036;BME280;23642;42.658;23.350;2022-09-13T03:32:31;55443.56;;;-146.31;83.47
2036;BME280;23642;42.658;23.350;2022-09-13T03:35:07;55451.81;;;-146.31;84.01
2036;BME280;23642;42.658;23.350;2022-09-13T03:37:46;55445.63;;;-146.31;84.42
2036;BME280;23642;42.658;23.350;2022-09-13T03:40:21;55433.22;;;-146.31;83.34
2036;BME280;23642;42.658;23.350;2022-09-13T03:42:56;55435.28;;;-146.31;82.43
2036;BME280;23642;42.658;23.350;2022-09-13T03:45:27;55439.41;;;-146.31;80.77
2036;BME280;23642;42.658;23.350;2022-09-13T03:47:56;55422.91;;;-146.31;80.17
2036;BME280;23642;42.658;23.350;2022-09-13T03:50:25;55418.78;;;-146.31;80.42
2036;BME280;23642;42.658;23.350;2022-09-13T03:52:57;55460.06;;;-146.31;80.98
2036;BME280;23642;42.658;23.350;2022-09-13T03:55:26;55472.47;;;-146.31;81.87
2036;BME280;23642;42.658;23.350;2022-09-13T03:57:53;55468.34;;;-146.31;83.07
2036;BME280;23642;42.658;23.350;2022-09-13T04:00:20;55455.94;;;-146.31;83.79
2036;BME280;23642;42.658;23.350;2022-09-13T04:02:48;55468.34;;;-146.31;83.30
2036;BME280;23642;42.658;23.350;2022-09-13T04:05:15;55474.53;;;-146.31;83.78
2036;BME280;23642;42.658;23.350;2022-09-13T04:07:43;55470.41;;;-146.31;82.31
2036;BME280;23642;42.658;23.350;2022-09-13T04:10:10;55480.72;;;-146.31;82.40
2036;BME280;23642;42.658;23.350;2022-09-13T04:12:38;55474.53;;;-146.31;82.60
2036;BME280;23642;42.658;23.350;2022-09-13T04:15:07;55460.06;;;-146.31;83.12
2036;BME280;23642;42.658;23.350;2022-09-13T04:17:34;55464.22;;;-146.31;82.92
2036;BME280;23642;42.658;23.350;2022-09-13T04:20:02;55443.56;;;-146.31;82.76
2036;BME280;23642;42.658;23.350;2022-09-13T04:22:30;55453.88;;;-146.31;82.84
2036;BME280;23642;42.658;23.350;2022-09-13T04:24:59;55468.34;;;-146.31;82.57
2036;BME280;23642;42.658;23.350;2022-09-13T04:27:26;55470.41;;;-146.31;82.53
2036;BME280;23642;42.658;23.350;2022-09-13T04:29:53;55480.72;;;-146.31;82.76
2036;BME280;23642;42.658;23.350;2022-09-13T04:32:20;55515.84;;;-146.31;83.45
2036;BME280;23642;42.658;23.350;2022-09-13T04:34:47;55489.00;;;-146.31;83.77
2036;BME280;23642;42.658;23.350;2022-09-13T04:37:13;55460.06;;;-146.31;82.79
2036;BME280;23642;42.658;23.350;2022-09-13T04:39:41;55460.06;;;-146.31;82.16
2036;BME280;23642;42.658;23.350;2022-09-13T04:42:09;55451.81;;;-146.31;80.96
2036;BME280;23642;42.658;23.350;2022-09-13T04:44:36;55447.69;;;-146.31;81.07
2036;BME280;23642;42.658;23.350;2022-09-13T04:47:04;55451.81;;;-146.31;80.35
2036;BME280;23642;42.658;23.350;2022-09-13T04:49:32;55470.41;;;-146.31;80.27
2036;BME280;23642;42.658;23.350;2022-09-13T04:51:59;55468.34;;;-146.31;79.79
2036;BME280;23642;42.658;23.350;2022-09-13T04:54:26;55464.22;;;-146.31;79.01
2036;BME280;23642;42.658;23.350;2022-09-13T04:56:53;55447.69;;;-146.31;78.34
2036;BME280;23642;42.658;23.350;2022-09-13T04:59:22;55451.81;;;-146.31;77.65
2036;BME280;23642;42.658;23.350;2022-09-13T05:01:49;55449.75;;;-146.31;76.92
2036;BME280;23642;42.658;23.350;2022-09-13T05:04:15;55455.94;;;-146.31;76.41
2036;BME280;23642;42.658;23.350;2022-09-13T05:06:42;55427.03;;;-146.31;75.17
2036;BME280;23642;42.658;23.350;2022-09-13T05:09:12;55433.22;;;-146.31;75.42
2036;BME280;23642;42.658;23.350;2022-09-13T05:11:39;55431.16;;;-146.31;74.70
2036;BME280;23642;42.658;23.350;2022-09-13T05:14:08;55391.91;;;-146.31;73.88
2036;BME280;23642;42.658;23.350;2022-09-13T05:16:37;55398.13;;;-146.31;74.28
2036;BME280;23642;42.658;23.350;2022-09-13T05:19:04;55422.91;;;-146.31;73.82
2036;BME280;23642;42.658;23.350;2022-09-13T05:21:31;55404.31;;;-146.31;72.66
2036;BME280;23642;42.658;23.350;2022-09-13T05:23:59;55422.91;;;-146.31;72.67
2036;BME280;23642;42.658;23.350;2022-09-13T05:26:28;55389.84;;;-146.31;71.34
2036;BME280;23642;42.658;23.350;2022-09-13T05:28:55;55389.84;;;-146.31;70.24
2036;BME280;23642;42.658;23.350;2022-09-13T05:31:25;55373.31;;;-146.31;68.50
2036;BME280;23642;42.658;23.350;2022-09-13T05:33:57;55373.31;;;-146.31;67.49
2036;BME280;23642;42.658;23.350;2022-09-13T05:36:24;55373.31;;;-146.31;65.84
2036;BME280;23642;42.658;23.350;2022-09-13T05:38:52;55356.81;;;-146.31;65.48
2036;BME280;23642;42.658;23.350;2022-09-13T05:41:19;55381.59;;;-146.31;65.20
2036;BME280;23642;42.658;23.350;2022-09-13T05:43:46;55393.97;;;-146.31;64.11
2036;BME280;23642;42.658;23.350;2022-09-13T05:46:14;55356.81;;;-146.31;64.30
2036;BME280;23642;42.658;23.350;2022-09-13T05:48:42;55356.81;;;-146.31;64.00
2036;BME280;23642;42.658;23.350;2022-09-13T05:51:12;55424.97;;;-146.31;64.25
2036;BME280;23642;42.658;23.350;2022-09-13T05:53:41;55422.91;;;-146.31;64.78
2036;BME280;23642;42.658;23.350;2022-09-13T05:56:10;55408.44;;;-146.31;64.70
2036;BME280;23642;42.658;23.350;2022-09-13T05:58:38;55424.97;;;-146.31;65.48
2036;BME280;23642;42.658;23.350;2022-09-13T06:01:06;55443.56;;;-146.31;65.93
2036;BME280;23642;42.658;23.350;2022-09-13T06:03:33;55429.09;;;-146.31;66.39
2036;BME280;23642;42.658;23.350;2022-09-13T06:06:02;55435.28;;;-146.31;65.78
2036;BME280;23642;42.658;23.350;2022-09-13T06:08:32;55433.22;;;-146.31;65.87
2036;BME280;23642;42.658;23.350;2022-09-13T06:11:01;55431.16;;;-146.31;65.96
2036;BME280;23642;42.658;23.350;2022-09-13T06:13:28;55458.00;;;-146.31;65.80
2036;BME280;23642;42.658;23.350;2022-09-13T06:15:57;55435.28;;;-146.31;65.34
2036;BME280;23642;42.658;23.350;2022-09-13T06:18:24;55437.34;;;-146.31;64.32
2036;BME280;23642;42.658;23.350;2022-09-13T06:20:56;55422.91;;;-146.31;64.75
2036;BME280;23642;42.658;23.350;2022-09-13T06:23:25;55435.28;;;-146.31;64.63
2036;BME280;23642;42.658;23.350;2022-09-13T06:26:01;55451.81;;;-146.31;64.49
2036;BME280;23642;42.658;23.350;2022-09-13T06:28:30;55387.78;;;-146.31;64.21
2036;BME280;23642;42.658;23.350;2022-09-13T06:31:01;55458.00;;;-146.31;64.01
2036;BME280;23642;42.658;23.350;2022-09-13T06:33:36;55404.31;;;-146.31;64.11
2036;BME280;23642;42.658;23.350;2022-09-13T06:36:05;55408.44;;;-146.31;64.14
2036;BME280;23642;42.658;23.350;2022-09-13T06:38:33;55406.38;;;-146.31;64.58
2036;BME280;23642;42.658;23.350;2022-09-13T06:41:04;55371.25;;;-146.31;64.13
2036;BME280;23642;42.658;23.350;2022-09-13T06:43:32;55410.50;;;-146.31;63.74
2036;BME280;23642;42.658;23.350;2022-09-13T06:46:00;55414.63;;;-146.31;64.94
2036;BME280;23642;42.658;23.350;2022-09-13T06:48:39;55404.31;;;-146.31;65.10
2036;BME280;23642;42.658;23.350;2022-09-13T06:51:10;55393.97;;;-146.31;64.15
2036;BME280;23642;42.658;23.350;2022-09-13T06:53:40;55375.41;;;-146.31;63.72
2036;BME280;23642;42.658;23.350;2022-09-13T06:56:10;55391.91;;;-146.31;64.37
2036;BME280;23642;42.658;23.350;2022-09-13T06:58:38;55360.94;;;-146.31;64.01
2036;BME280;23642;42.658;23.350;2022-09-13T07:01:08;55400.19;;;-146.31;63.74
2036;BME280;23642;42.658;23.350;2022-09-13T07:03:37;55414.63;;;-146.31;63.08
2036;BME280;23642;42.658;23.350;2022-09-13T07:06:09;55416.69;;;-146.31;64.35
2036;BME280;23642;42.658;23.350;2022-09-13T07:08:37;55404.31;;;-146.31;63.28
2036;BME280;23642;42.658;23.350;2022-09-13T07:11:05;55381.59;;;-146.31;62.52
2036;BME280;23642;42.658;23.350;2022-09-13T07:13:34;55418.78;;;-146.31;61.84
2036;BME280;23642;42.658;23.350;2022-09-13T07:16:04;55410.50;;;-146.31;61.93
2036;BME280;23642;42.658;23.350;2022-09-13T07:18:32;55424.97;;;-146.31;62.98
2036;BME280;23642;42.658;23.350;2022-09-13T07:21:05;55443.56;;;-146.31;62.82
2036;BME280;23642;42.658;23.350;2022-09-13T07:23:33;55385.72;;;-146.31;62.80
2036;BME280;23642;42.658;23.350;2022-09-13T07:26:01;55402.25;;;-146.31;61.16
2036;BME280;23642;42.658;23.350;2022-09-13T07:28:36;55414.63;;;-146.31;60.98
2036;BME280;23642;42.658;23.350;2022-09-13T07:31:07;55433.22;;;-146.31;59.93
2036;BME280;23642;42.658;23.350;2022-09-13T07:33:35;55449.75;;;-146.31;60.36
2036;BME280;23642;42.658;23.350;2022-09-13T07:36:03;55427.03;;;-146.31;61.52
2036;BME280;23642;42.658;23.350;2022-09-13T07:38:32;55410.50;;;-146.31;61.66
2036;BME280;23642;42.658;23.350;2022-09-13T07:40:59;55443.56;;;-146.31;60.58
2036;BME280;23642;42.658;23.350;2022-09-13T07:43:28;55435.28;;;-146.31;59.55
2036;BME280;23642;42.658;23.350;2022-09-13T07:45:57;55447.69;;;-146.31;59.39
2036;BME280;23642;42.658;23.350;2022-09-13T07:48:26;55453.88;;;-146.31;57.87
2036;BME280;23642;42.658;23.350;2022-09-13T07:50:58;55418.78;;;-146.31;57.26
2036;BME280;23642;42.658;23.350;2022-09-13T07:53:30;55433.22;;;-146.31;58.41
2036;BME280;23642;42.658;23.350;2022-09-13T07:56:01;55437.34;;;-146.31;58.13
2036;BME280;23642;42.658;23.350;2022-09-13T07:58:34;55486.94;;;-146.31;57.74
2036;BME280;23642;42.658;23.350;2022-09-13T08:01:06;55447.69;;;-146.31;57.88
2036;BME280;23642;42.658;23.350;2022-09-13T08:03:34;55418.78;;;-146.31;57.81
2036;BME280;23642;42.658;23.350;2022-09-13T08:06:04;55464.22;;;-146.31;54.71
2036;BME280;23642;42.658;23.350;2022-09-13T08:08:32;55402.25;;;-146.31;55.91
2036;BME280;23642;42.658;23.350;2022-09-13T08:11:02;55458.00;;;-146.31;54.18
2036;BME280;23642;42.658;23.350;2022-09-13T08:13:33;55435.28;;;-146.31;54.91
2036;BME280;23642;42.658;23.350;2022-09-13T08:16:01;55427.03;;;-146.31;55.01
2036;BME280;23642;42.658;23.350;2022-09-13T08:18:30;55416.69;;;-146.31;55.26
2036;BME280;23642;42.658;23.350;2022-09-13T08:20:59;55410.50;;;-146.31;54.09
2036;BME280;23642;42.658;23.350;2022-09-13T08:23:27;55418.78;;;-146.31;54.26
2036;BME280;23642;42.658;23.350;2022-09-13T08:25:59;55431.16;;;-146.31;54.41
2036;BME280;23642;42.658;23.350;2022-09-13T08:28:33;55422.91;;;-146.31;54.87
2036;BME280;23642;42.658;23.350;2022-09-13T08:31:05;55414.63;;;-146.31;54.41
2036;BME280;23642;42.658;23.350;2022-09-13T08:33:36;55414.63;;;-146.31;51.66
2036;BME280;23642;42.658;23.350;2022-09-13T08:36:04;55493.13;;;-146.31;49.52
2036;BME280;23642;42.658;23.350;2022-09-13T08:38:31;55548.88;;;-146.31;49.60
2036;BME280;23642;42.658;23.350;2022-09-13T08:41:01;55484.88;;;-146.31;49.79
2036;BME280;23642;42.658;23.350;2022-09-13T08:43:39;55474.53;;;-146.31;50.75
2036;BME280;23642;42.658;23.350;2022-09-13T08:46:16;55491.06;;;-146.31;48.18
2036;BME280;23642;42.658;23.350;2022-09-13T08:48:50;55703.81;;;-146.31;43.61
2036;BME280;23642;42.658;23.350;2022-09-13T08:51:27;55668.69;;;-146.31;45.15
2036;BME280;23642;42.658;23.350;2022-09-13T08:53:58;55654.22;;;-146.31;44.41
2036;BME280;23642;42.658;23.350;2022-09-13T08:56:31;55689.34;;;-146.31;44.34
2036;BME280;23642;42.658;23.350;2022-09-13T09:02:00;55631.50;;;-146.31;44.85
2036;BME280;23642;42.658;23.350;2022-09-13T09:04:38;55650.09;;;-146.31;43.30
2036;BME280;23642;42.658;23.350;2022-09-13T09:07:16;55662.50;;;-146.31;43.24
2036;BME280;23642;42.658;23.350;2022-09-13T09:09:49;55681.09;;;-146.31;43.06
2036;BME280;23642;42.658;23.350;2022-09-13T09:12:24;55676.97;;;-146.31;42.01
2036;BME280;23642;42.658;23.350;2022-09-13T09:15:02;55691.41;;;-146.31;40.62
2036;BME280;23642;42.658;23.350;2022-09-13T09:17:39;55813.28;;;-146.31;39.87
2036;BME280;23642;42.658;23.350;2022-09-13T09:20:18;55757.50;;;-146.31;39.59
2036;BME280;23642;42.658;23.350;2022-09-13T09:22:49;55745.13;;;-146.31;39.91
2036;BME280;23642;42.658;23.350;2022-09-13T09:25:17;55759.59;;;-146.31;39.57
2036;BME280;23642;42.658;23.350;2022-09-13T09:27:45;55813.28;;;-146.31;39.54
2036;BME280;23642;42.658;23.350;2022-09-13T09:30:15;55736.84;;;-146.31;40.69
2036;BME280;23642;42.658;23.350;2022-09-13T09:33:00;55714.13;;;-146.31;41.14
2036;BME280;23642;42.658;23.350;2022-09-13T09:35:46;55800.91;;;-146.31;42.29
2036;BME280;23642;42.658;23.350;2022-09-13T09:38:37;55809.16;;;-146.31;42.40
2036;BME280;23642;42.658;23.350;2022-09-13T09:41:13;55844.28;;;-146.31;43.25
2036;BME280;23642;42.658;23.350;2022-09-13T09:43:46;55802.97;;;-146.31;42.90
2036;BME280;23642;42.658;23.350;2022-09-13T09:46:21;55794.69;;;-146.31;41.49
2036;BME280;23642;42.658;23.350;2022-09-13T09:48:53;55869.06;;;-146.31;41.99
2036;BME280;23642;42.658;23.350;2022-09-13T09:51:27;55819.47;;;-146.31;41.34
2036;BME280;23642;42.658;23.350;2022-09-13T09:53:59;55827.75;;;-146.31;41.36
2036;BME280;23642;42.658;23.350;2022-09-13T09:56:31;55805.03;;;-146.31;41.67
2036;BME280;23642;42.658;23.350;2022-09-13T09:59:00;55831.88;;;-146.31;41.56
2036;BME280;23642;42.658;23.350;2022-09-13T10:01:29;55813.28;;;-146.31;41.99
2036;BME280;23642;42.658;23.350;2022-09-13T10:04:07;55833.94;;;-146.31;41.87
2036;BME280;23642;42.658;23.350;2022-09-13T10:06:45;55825.69;;;-146.31;42.34
2036;BME280;23642;42.658;23.350;2022-09-13T10:09:15;55815.34;;;-146.31;43.61
2036;BME280;23642;42.658;23.350;2022-09-13T10:11:46;55875.25;;;-146.31;43.49
2036;BME280;23642;42.658;23.350;2022-09-13T10:14:34;55850.47;;;-146.31;44.25
2036;BME280;23642;42.658;23.350;2022-09-13T10:17:22;55836.00;;;-146.31;43.45
2036;BME280;23642;42.658;23.350;2022-09-13T10:20:17;55805.03;;;-146.31;43.07
2036;BME280;23642;42.658;23.350;2022-09-13T10:23:10;55840.13;;;-146.31;42.59
2036;BME280;23642;42.658;23.350;2022-09-13T10:25:41;55819.47;;;-146.31;43.16
2036;BME280;23642;42.658;23.350;2022-09-13T10:28:13;55850.47;;;-146.31;42.35
2036;BME280;23642;42.658;23.350;2022-09-13T10:30:44;55869.06;;;-146.31;42.32
2036;BME280;23642;42.658;23.350;2022-09-13T10:33:26;55891.78;;;-146.31;42.29
2036;BME280;23642;42.658;23.350;2022-09-13T10:35:56;55856.66;;;-146.31;43.34
2036;BME280;23642;42.658;23.350;2022-09-13T10:38:30;55860.78;;;-146.31;41.89
2036;BME280;23642;42.658;23.350;2022-09-13T10:41:08;55873.19;;;-146.31;42.02
2036;BME280;23642;42.658;23.350;2022-09-13T10:43:38;55827.75;;;-146.31;42.50
2036;BME280;23642;42.658;23.350;2022-09-13T10:46:13;55813.28;;;-146.31;40.96
2036;BME280;23642;42.658;23.350;2022-09-13T10:48:50;55833.94;;;-146.31;40.82
2036;BME280;23642;42.658;23.350;2022-09-13T10:51:42;55836.00;;;-146.31;41.03
2036;BME280;23642;42.658;23.350;2022-09-13T10:54:18;55815.34;;;-146.31;40.89
2036;BME280;23642;42.658;23.350;2022-09-13T10:56:47;55829.81;;;-146.31;41.24
2036;BME280;23642;42.658;23.350;2022-09-13T10:59:19;55831.88;;;-146.31;41.19
2036;BME280;23642;42.658;23.350;2022-09-13T11:02:04;55794.69;;;-146.31;42.37
2036;BME280;23642;42.658;23.350;2022-09-13T11:04:56;55802.97;;;-146.31;40.96
2036;BME280;23642;42.658;23.350;2022-09-13T11:07:49;55807.09;;;-146.31;41.01
2036;BME280;23642;42.658;23.350;2022-09-13T11:10:33;55825.69;;;-146.31;41.20
2036;BME280;23642;42.658;23.350;2022-09-13T11:13:06;55811.22;;;-146.31;41.79
2036;BME280;23642;42.658;23.350;2022-09-13T11:15:48;55840.13;;;-146.31;41.08
2036;BME280;23642;42.658;23.350;2022-09-13T11:18:37;55836.00;;;-146.31;41.56
2036;BME280;23642;42.658;23.350;2022-09-13T11:21:19;55869.06;;;-146.31;40.49
2036;BME280;23642;42.658;23.350;2022-09-13T11:24:10;55844.28;;;-146.31;40.02
2036;BME280;23642;42.658;23.350;2022-09-13T11:26:52;55811.22;;;-146.31;39.02
2036;BME280;23642;42.658;23.350;2022-09-13T11:29:32;55827.75;;;-146.31;39.06
2036;BME280;23642;42.658;23.350;2022-09-13T11:32:21;55831.88;;;-146.31;38.27
2036;BME280;23642;42.658;23.350;2022-09-13T11:35:06;55862.88;;;-146.31;37.87
2036;BME280;23642;42.658;23.350;2022-09-13T11:37:44;55873.19;;;-146.31;37.93
2036;BME280;23642;42.658;23.350;2022-09-13T11:40:27;55852.53;;;-146.31;37.84
2036;BME280;23642;42.658;23.350;2022-09-13T11:43:05;55869.06;;;-146.31;37.59
2036;BME280;23642;42.658;23.350;2022-09-13T11:45:44;55850.47;;;-146.31;36.49
2036;BME280;23642;42.658;23.350;2022-09-13T11:48:43;55869.06;;;-146.31;37.15
2036;BME280;23642;42.658;23.350;2022-09-13T11:51:26;55840.13;;;-146.31;37.91
2036;BME280;23642;42.658;23.350;2022-09-13T11:54:17;55823.63;;;-146.31;37.78
2036;BME280;23642;42.658;23.350;2022-09-13T11:56:51;55875.25;;;-146.31;37.22
2036;BME280;23642;42.658;23.350;2022-09-13T11:59:32;55836.00;;;-146.31;37.65
2036;BME280;23642;42.658;23.350;2022-09-13T12:02:17;55784.38;;;-146.31;36.95
2036;BME280;23642;42.658;23.350;2022-09-13T12:04:48;55827.75;;;-146.31;36.83
2036;BME280;23642;42.658;23.350;2022-09-13T12:07:24;55817.41;;;-146.31;36.79
2036;BME280;23642;42.658;23.350;2022-09-13T12:09:59;55840.13;;;-146.31;36.67
2036;BME280;23642;42.658;23.350;2022-09-13T12:12:31;55856.66;;;-146.31;35.78
2036;BME280;23642;42.658;23.350;2022-09-13T12:15:04;55856.66;;;-146.31;36.23
2036;BME280;23642;42.658;23.350;2022-09-13T12:17:36;55819.47;;;-146.31;35.88
2036;BME280;23642;42.658;23.350;2022-09-13T12:20:10;55786.44;;;-146.31;35.87
2036;BME280;23642;42.658;23.350;2022-09-13T12:22:39;55807.09;;;-146.31;36.96
2036;BME280;23642;42.658;23.350;2022-09-13T12:25:17;55844.28;;;-146.31;37.34
2036;BME280;23642;42.658;23.350;2022-09-13T12:27:50;55864.94;;;-146.31;37.12
2036;BME280;23642;42.658;23.350;2022-09-13T12:30:22;55875.25;;;-146.31;36.71
2036;BME280;23642;42.658;23.350;2022-09-13T12:32:52;55889.72;;;-146.31;36.25
2036;BME280;23642;42.658;23.350;2022-09-13T12:35:24;55885.59;;;-146.31;35.95
2036;BME280;23642;42.658;23.350;2022-09-13T12:41:17;55848.41;;;-146.31;36.11
2036;BME280;23642;42.658;23.350;2022-09-13T12:44:20;55854.59;;;-146.31;36.29
2036;BME280;23642;42.658;23.350;2022-09-13T12:47:13;55867.00;;;-146.31;36.15
2036;BME280;23642;42.658;23.350;2022-09-13T12:50:09;55819.47;;;-146.31;36.42
2036;BME280;23642;42.658;23.350;2022-09-13T12:52:47;55823.63;;;-146.31;35.59
2036;BME280;23642;42.658;23.350;2022-09-13T12:58:35;55829.81;;;-146.31;35.68
2036;BME280;23642;42.658;23.350;2022-09-13T13:01:11;55869.06;;;-146.31;35.99
2036;BME280;23642;42.658;23.350;2022-09-13T13:03:48;55844.28;;;-146.31;36.51
2036;BME280;23642;42.658;23.350;2022-09-13T13:06:26;55840.13;;;-146.31;36.02
2036;BME280;23642;42.658;23.350;2022-09-13T13:08:59;55871.13;;;-146.31;36.29
2036;BME280;23642;42.658;23.350;2022-09-13T13:11:29;55877.31;;;-146.31;35.79
2036;BME280;23642;42.658;23.350;2022-09-13T13:14:26;55831.88;;;-146.31;35.24
2036;BME280;23642;42.658;23.350;2022-09-13T13:19:57;55811.22;;;-146.31;36.07
2036;BME280;23642;42.658;23.350;2022-09-13T13:22:49;55827.75;;;-146.31;36.54
2036;BME280;23642;42.658;23.350;2022-09-13T13:25:32;55796.75;;;-146.31;37.02
2036;BME280;23642;42.658;23.350;2022-09-13T13:28:02;55792.63;;;-146.31;36.27
2036;BME280;23642;42.658;23.350;2022-09-13T13:30:50;55815.34;;;-146.31;36.33